sensor_id;sensor_type;location;lat;lon;timestamp;P1;durP1;ratioP1;P2;durP2;ratioP2
72065;SDS011;59939;52.516;13.420;2022-07-06T00:01:24;5.15;;;1.42;;
72065;SDS011;59939;52.516;13.420;2022-07-06T00:04:29;6.80;;;1.35;;
72065;SDS011;59939;52.516;13.420;2022-07-06T00:07:34;7.43;;;1.90;;
72065;SDS011;59939;52.516;13.420;2022-07-06T00:10:39;7.28;;;1.70;;
72065;SDS011;59939;52.516;13.420;2022-07-06T00:13:43;7.57;;;1.60;;
72065;SDS011;59939;52.516;13.420;2022-07-06T00:16:48;6.50;;;1.75;;
72065;SDS011;59939;52.516;13.420;2022-07-06T00:19:52;6.65;;;1.40;;
72065;SDS011;59939;52.516;13.420;2022-07-06T00:22:56;7.10;;;1.50;;
72065;SDS011;59939;52.516;13.420;2022-07-06T00:26:00;4.60;;;1.30;;
72065;SDS011;59939;52.516;13.420;2022-07-06T00:29:05;7.18;;;1.52;;
72065;SDS011;59939;52.516;13.420;2022-07-06T00:32:12;4.80;;;1.50;;
72065;SDS011;59939;52.516;13.420;2022-07-06T00:35:16;6.00;;;1.50;;
72065;SDS011;59939;52.516;13.420;2022-07-06T00:38:21;4.07;;;1.25;;
72065;SDS011;59939;52.516;13.420;2022-07-06T00:41:25;6.88;;;1.73;;
72065;SDS011;59939;52.516;13.420;2022-07-06T00:44:29;5.45;;;1.50;;
72065;SDS011;59939;52.516;13.420;2022-07-06T00:47:36;4.35;;;1.40;;
72065;SDS011;59939;52.516;13.420;2022-07-06T00:50:40;9.15;;;1.70;;
72065;SDS011;59939;52.516;13.420;2022-07-06T00:53:45;4.97;;;1.33;;
72065;SDS011;59939;52.516;13.420;2022-07-06T00:56:50;4.43;;;1.45;;
72065;SDS011;59939;52.516;13.420;2022-07-06T00:59:54;10.20;;;1.70;;
72065;SDS011;59939;52.516;13.420;2022-07-06T01:03:00;2.92;;;1.27;;
72065;SDS011;59939;52.516;13.420;2022-07-06T01:06:04;5.47;;;1.50;;
72065;SDS011;59939;52.516;13.420;2022-07-06T01:09:09;6.68;;;1.50;;
72065;SDS011;59939;52.516;13.420;2022-07-06T01:12:13;5.30;;;1.40;;
72065;SDS011;59939;52.516;13.420;2022-07-06T01:15:18;5.25;;;1.50;;
72065;SDS011;59939;52.516;13.420;2022-07-06T01:18:24;4.05;;;1.40;;
72065;SDS011;59939;52.516;13.420;2022-07-06T01:21:29;7.97;;;1.70;;
72065;SDS011;59939;52.516;13.420;2022-07-06T01:24:37;10.88;;;1.60;;
72065;SDS011;59939;52.516;13.420;2022-07-06T01:27:41;4.68;;;1.60;;
72065;SDS011;59939;52.516;13.420;2022-07-06T01:30:46;7.47;;;1.65;;
72065;SDS011;59939;52.516;13.420;2022-07-06T01:33:53;5.18;;;1.52;;
72065;SDS011;59939;52.516;13.420;2022-07-06T01:36:58;4.68;;;1.60;;
72065;SDS011;59939;52.516;13.420;2022-07-06T01:40:04;7.57;;;1.60;;
72065;SDS011;59939;52.516;13.420;2022-07-06T01:43:10;2.28;;;1.40;;
72065;SDS011;59939;52.516;13.420;2022-07-06T01:46:14;6.32;;;1.80;;
72065;SDS011;59939;52.516;13.420;2022-07-06T01:49:19;7.82;;;1.70;;
72065;SDS011;59939;52.516;13.420;2022-07-06T01:52:23;6.55;;;1.63;;
72065;SDS011;59939;52.516;13.420;2022-07-06T01:55:27;6.22;;;1.67;;
72065;SDS011;59939;52.516;13.420;2022-07-06T01:58:32;7.68;;;1.88;;
72065;SDS011;59939;52.516;13.420;2022-07-06T02:01:36;5.90;;;2.08;;
72065;SDS011;59939;52.516;13.420;2022-07-06T02:04:40;6.05;;;1.55;;
72065;SDS011;59939;52.516;13.420;2022-07-06T02:07:45;11.88;;;2.47;;
72065;SDS011;59939;52.516;13.420;2022-07-06T02:10:49;5.95;;;1.90;;
72065;SDS011;59939;52.516;13.420;2022-07-06T02:13:55;8.98;;;1.65;;
72065;SDS011;59939;52.516;13.420;2022-07-06T02:16:59;6.93;;;1.88;;
72065;SDS011;59939;52.516;13.420;2022-07-06T02:20:04;8.48;;;1.70;;
72065;SDS011;59939;52.516;13.420;2022-07-06T02:23:09;5.85;;;1.77;;
72065;SDS011;59939;52.516;13.420;2022-07-06T02:26:13;5.70;;;1.70;;
72065;SDS011;59939;52.516;13.420;2022-07-06T02:29:18;8.52;;;1.80;;
72065;SDS011;59939;52.516;13.420;2022-07-06T02:32:22;6.90;;;1.92;;
72065;SDS011;59939;52.516;13.420;2022-07-06T02:35:26;6.88;;;1.80;;
72065;SDS011;59939;52.516;13.420;2022-07-06T02:38:31;8.05;;;2.58;;
72065;SDS011;59939;52.516;13.420;2022-07-06T02:41:35;8.07;;;2.20;;
72065;SDS011;59939;52.516;13.420;2022-07-06T02:44:40;6.85;;;2.70;;
72065;SDS011;59939;52.516;13.420;2022-07-06T02:47:44;10.73;;;2.40;;
72065;SDS011;59939;52.516;13.420;2022-07-06T02:50:49;9.35;;;2.28;;
72065;SDS011;59939;52.516;13.420;2022-07-06T02:53:53;6.32;;;2.00;;
72065;SDS011;59939;52.516;13.420;2022-07-06T02:56:57;7.70;;;2.40;;
72065;SDS011;59939;52.516;13.420;2022-07-06T03:00:03;9.35;;;2.40;;
72065;SDS011;59939;52.516;13.420;2022-07-06T03:03:08;11.32;;;2.80;;
72065;SDS011;59939;52.516;13.420;2022-07-06T03:06:14;8.70;;;2.10;;
72065;SDS011;59939;52.516;13.420;2022-07-06T03:09:18;9.07;;;2.15;;
72065;SDS011;59939;52.516;13.420;2022-07-06T03:12:22;7.57;;;2.28;;
72065;SDS011;59939;52.516;13.420;2022-07-06T03:15:27;8.98;;;2.33;;
72065;SDS011;59939;52.516;13.420;2022-07-06T03:18:31;7.82;;;2.30;;
72065;SDS011;59939;52.516;13.420;2022-07-06T03:21:36;7.43;;;2.30;;
72065;SDS011;59939;52.516;13.420;2022-07-06T03:24:41;7.35;;;2.60;;
72065;SDS011;59939;52.516;13.420;2022-07-06T03:27:45;6.45;;;2.08;;
72065;SDS011;59939;52.516;13.420;2022-07-06T03:30:53;7.95;;;2.40;;
72065;SDS011;59939;52.516;13.420;2022-07-06T03:33:57;6.25;;;2.47;;
72065;SDS011;59939;52.516;13.420;2022-07-06T03:37:03;8.52;;;2.28;;
72065;SDS011;59939;52.516;13.420;2022-07-06T03:40:07;8.00;;;2.28;;
72065;SDS011;59939;52.516;13.420;2022-07-06T03:43:12;6.93;;;2.40;;
72065;SDS011;59939;52.516;13.420;2022-07-06T03:46:18;6.93;;;2.40;;
72065;SDS011;59939;52.516;13.420;2022-07-06T03:49:23;4.85;;;1.95;;
72065;SDS011;59939;52.516;13.420;2022-07-06T03:52:35;8.40;;;2.33;;
72065;SDS011;59939;52.516;13.420;2022-07-06T03:55:45;6.57;;;2.22;;
72065;SDS011;59939;52.516;13.420;2022-07-06T03:59:13;7.72;;;2.67;;
72065;SDS011;59939;52.516;13.420;2022-07-06T04:02:18;10.50;;;2.72;;
72065;SDS011;59939;52.516;13.420;2022-07-06T04:05:24;9.38;;;1.95;;
72065;SDS011;59939;52.516;13.420;2022-07-06T04:08:45;10.93;;;2.33;;
72065;SDS011;59939;52.516;13.420;2022-07-06T04:11:52;11.85;;;1.92;;
72065;SDS011;59939;52.516;13.420;2022-07-06T04:14:57;8.98;;;2.55;;
72065;SDS011;59939;52.516;13.420;2022-07-06T04:18:03;7.25;;;2.25;;
72065;SDS011;59939;52.516;13.420;2022-07-06T04:21:13;10.20;;;2.40;;
72065;SDS011;59939;52.516;13.420;2022-07-06T04:24:17;6.30;;;1.80;;
72065;SDS011;59939;52.516;13.420;2022-07-06T04:27:21;8.27;;;2.22;;
72065;SDS011;59939;52.516;13.420;2022-07-06T04:30:26;6.85;;;2.22;;
72065;SDS011;59939;52.516;13.420;2022-07-06T04:33:30;10.07;;;2.53;;
72065;SDS011;59939;52.516;13.420;2022-07-06T04:36:35;10.70;;;2.30;;
72065;SDS011;59939;52.516;13.420;2022-07-06T04:39:40;8.70;;;2.42;;
72065;SDS011;59939;52.516;13.420;2022-07-06T04:42:59;8.90;;;2.08;;
72065;SDS011;59939;52.516;13.420;2022-07-06T04:46:05;12.43;;;3.15;;
72065;SDS011;59939;52.516;13.420;2022-07-06T04:49:12;7.18;;;2.25;;
72065;SDS011;59939;52.516;13.420;2022-07-06T04:52:21;10.00;;;2.63;;
72065;SDS011;59939;52.516;13.420;2022-07-06T04:55:26;7.07;;;2.22;;
72065;SDS011;59939;52.516;13.420;2022-07-06T04:58:30;4.57;;;1.83;;
72065;SDS011;59939;52.516;13.420;2022-07-06T05:01:34;8.50;;;2.15;;
72065;SDS011;59939;52.516;13.420;2022-07-06T05:04:39;13.50;;;2.45;;
72065;SDS011;59939;52.516;13.420;2022-07-06T05:07:44;9.18;;;1.98;;
72065;SDS011;59939;52.516;13.420;2022-07-06T05:11:01;8.80;;;1.95;;
72065;SDS011;59939;52.516;13.420;2022-07-06T05:14:06;9.18;;;2.38;;
72065;SDS011;59939;52.516;13.420;2022-07-06T05:17:11;8.32;;;2.25;;
72065;SDS011;59939;52.516;13.420;2022-07-06T05:20:15;6.43;;;1.85;;
72065;SDS011;59939;52.516;13.420;2022-07-06T05:23:21;6.68;;;2.30;;
72065;SDS011;59939;52.516;13.420;2022-07-06T05:26:31;7.80;;;1.92;;
72065;SDS011;59939;52.516;13.420;2022-07-06T05:29:35;7.45;;;2.40;;
72065;SDS011;59939;52.516;13.420;2022-07-06T05:32:39;6.90;;;1.40;;
72065;SDS011;59939;52.516;13.420;2022-07-06T05:35:43;8.43;;;2.13;;
72065;SDS011;59939;52.516;13.420;2022-07-06T05:39:00;6.82;;;1.88;;
72065;SDS011;59939;52.516;13.420;2022-07-06T05:42:05;10.80;;;2.20;;
72065;SDS011;59939;52.516;13.420;2022-07-06T05:45:12;9.80;;;1.80;;
72065;SDS011;59939;52.516;13.420;2022-07-06T05:48:18;7.57;;;1.70;;
72065;SDS011;59939;52.516;13.420;2022-07-06T05:51:58;6.18;;;1.42;;
72065;SDS011;59939;52.516;13.420;2022-07-06T05:55:04;5.28;;;1.73;;
72065;SDS011;59939;52.516;13.420;2022-07-06T05:58:09;8.38;;;1.60;;
72065;SDS011;59939;52.516;13.420;2022-07-06T06:01:17;9.27;;;2.17;;
72065;SDS011;59939;52.516;13.420;2022-07-06T06:04:45;10.40;;;2.15;;
72065;SDS011;59939;52.516;13.420;2022-07-06T06:07:51;8.38;;;1.85;;
72065;SDS011;59939;52.516;13.420;2022-07-06T06:11:10;7.82;;;1.88;;
72065;SDS011;59939;52.516;13.420;2022-07-06T06:14:17;6.10;;;1.80;;
72065;SDS011;59939;52.516;13.420;2022-07-06T06:17:21;10.27;;;2.00;;
72065;SDS011;59939;52.516;13.420;2022-07-06T06:20:25;7.65;;;2.72;;
72065;SDS011;59939;52.516;13.420;2022-07-06T06:23:29;7.72;;;2.22;;
72065;SDS011;59939;52.516;13.420;2022-07-06T06:26:33;7.95;;;2.00;;
72065;SDS011;59939;52.516;13.420;2022-07-06T06:29:38;10.93;;;2.03;;
72065;SDS011;59939;52.516;13.420;2022-07-06T06:32:42;11.27;;;2.10;;
72065;SDS011;59939;52.516;13.420;2022-07-06T06:35:47;4.30;;;1.55;;
72065;SDS011;59939;52.516;13.420;2022-07-06T06:38:53;8.05;;;1.80;;
72065;SDS011;59939;52.516;13.420;2022-07-06T06:41:59;8.63;;;1.98;;
72065;SDS011;59939;52.516;13.420;2022-07-06T06:45:09;7.15;;;1.88;;
72065;SDS011;59939;52.516;13.420;2022-07-06T06:48:13;11.48;;;2.10;;
72065;SDS011;59939;52.516;13.420;2022-07-06T06:51:19;8.88;;;2.17;;
72065;SDS011;59939;52.516;13.420;2022-07-06T06:54:24;9.00;;;1.92;;
72065;SDS011;59939;52.516;13.420;2022-07-06T06:57:28;11.40;;;1.60;;
72065;SDS011;59939;52.516;13.420;2022-07-06T07:00:33;7.43;;;2.08;;
72065;SDS011;59939;52.516;13.420;2022-07-06T07:03:37;11.23;;;1.92;;
72065;SDS011;59939;52.516;13.420;2022-07-06T07:06:41;12.45;;;2.20;;
72065;SDS011;59939;52.516;13.420;2022-07-06T07:09:45;12.75;;;2.15;;
72065;SDS011;59939;52.516;13.420;2022-07-06T07:12:49;7.18;;;1.80;;
72065;SDS011;59939;52.516;13.420;2022-07-06T07:15:54;13.27;;;2.40;;
72065;SDS011;59939;52.516;13.420;2022-07-06T07:18:58;6.15;;;1.48;;
72065;SDS011;59939;52.516;13.420;2022-07-06T07:22:02;11.27;;;2.35;;
72065;SDS011;59939;52.516;13.420;2022-07-06T07:25:07;8.65;;;2.20;;
72065;SDS011;59939;52.516;13.420;2022-07-06T07:28:11;8.05;;;1.92;;
72065;SDS011;59939;52.516;13.420;2022-07-06T07:31:16;8.18;;;1.60;;
72065;SDS011;59939;52.516;13.420;2022-07-06T07:34:19;8.30;;;2.20;;
72065;SDS011;59939;52.516;13.420;2022-07-06T07:37:24;9.48;;;1.58;;
72065;SDS011;59939;52.516;13.420;2022-07-06T07:40:28;4.38;;;1.23;;
72065;SDS011;59939;52.516;13.420;2022-07-06T07:43:33;6.22;;;1.45;;
72065;SDS011;59939;52.516;13.420;2022-07-06T07:46:38;4.68;;;1.60;;
72065;SDS011;59939;52.516;13.420;2022-07-06T07:49:42;2.47;;;1.35;;
72065;SDS011;59939;52.516;13.420;2022-07-06T07:52:46;7.10;;;1.33;;
72065;SDS011;59939;52.516;13.420;2022-07-06T07:55:51;3.90;;;1.38;;
72065;SDS011;59939;52.516;13.420;2022-07-06T07:58:55;1.08;;;0.90;;
72065;SDS011;59939;52.516;13.420;2022-07-06T08:02:04;9.52;;;1.70;;
72065;SDS011;59939;52.516;13.420;2022-07-06T08:05:09;8.80;;;2.00;;
72065;SDS011;59939;52.516;13.420;2022-07-06T08:08:18;1.85;;;1.02;;
72065;SDS011;59939;52.516;13.420;2022-07-06T08:11:23;8.13;;;1.48;;
72065;SDS011;59939;52.516;13.420;2022-07-06T08:14:28;8.25;;;1.60;;
72065;SDS011;59939;52.516;13.420;2022-07-06T08:17:34;7.80;;;2.00;;
72065;SDS011;59939;52.516;13.420;2022-07-06T08:20:39;10.70;;;1.67;;
72065;SDS011;59939;52.516;13.420;2022-07-06T08:23:49;10.95;;;1.58;;
72065;SDS011;59939;52.516;13.420;2022-07-06T08:26:53;5.80;;;1.35;;
72065;SDS011;59939;52.516;13.420;2022-07-06T08:30:01;3.40;;;0.98;;
72065;SDS011;59939;52.516;13.420;2022-07-06T08:33:06;7.72;;;1.60;;
72065;SDS011;59939;52.516;13.420;2022-07-06T08:36:10;9.20;;;1.80;;
72065;SDS011;59939;52.516;13.420;2022-07-06T08:39:15;3.55;;;1.48;;
72065;SDS011;59939;52.516;13.420;2022-07-06T08:42:20;6.80;;;1.25;;
72065;SDS011;59939;52.516;13.420;2022-07-06T08:45:25;5.93;;;1.48;;
72065;SDS011;59939;52.516;13.420;2022-07-06T08:48:35;9.13;;;1.95;;
72065;SDS011;59939;52.516;13.420;2022-07-06T08:51:41;2.05;;;1.08;;
72065;SDS011;59939;52.516;13.420;2022-07-06T08:54:46;6.93;;;1.20;;
72065;SDS011;59939;52.516;13.420;2022-07-06T08:57:51;7.32;;;1.35;;
72065;SDS011;59939;52.516;13.420;2022-07-06T09:00:56;3.42;;;1.05;;
72065;SDS011;59939;52.516;13.420;2022-07-06T09:04:01;9.13;;;1.50;;
72065;SDS011;59939;52.516;13.420;2022-07-06T09:07:11;2.47;;;0.90;;
72065;SDS011;59939;52.516;13.420;2022-07-06T09:10:26;4.25;;;0.90;;
72065;SDS011;59939;52.516;13.420;2022-07-06T09:13:31;4.00;;;1.08;;
72065;SDS011;59939;52.516;13.420;2022-07-06T09:16:35;5.53;;;1.20;;
72065;SDS011;59939;52.516;13.420;2022-07-06T09:19:43;3.72;;;0.90;;
72065;SDS011;59939;52.516;13.420;2022-07-06T09:22:48;9.80;;;1.50;;
72065;SDS011;59939;52.516;13.420;2022-07-06T09:25:53;6.63;;;1.52;;
72065;SDS011;59939;52.516;13.420;2022-07-06T09:29:12;4.40;;;1.02;;
72065;SDS011;59939;52.516;13.420;2022-07-06T09:32:20;5.28;;;1.15;;
72065;SDS011;59939;52.516;13.420;2022-07-06T09:35:36;3.10;;;1.00;;
72065;SDS011;59939;52.516;13.420;2022-07-06T09:38:43;6.40;;;1.35;;
72065;SDS011;59939;52.516;13.420;2022-07-06T09:41:48;3.05;;;1.02;;
72065;SDS011;59939;52.516;13.420;2022-07-06T09:44:54;8.05;;;1.33;;
72065;SDS011;59939;52.516;13.420;2022-07-06T09:48:04;4.97;;;1.27;;
72065;SDS011;59939;52.516;13.420;2022-07-06T09:51:15;9.48;;;1.58;;
72065;SDS011;59939;52.516;13.420;2022-07-06T09:54:19;4.40;;;1.10;;
72065;SDS011;59939;52.516;13.420;2022-07-06T09:57:24;4.22;;;1.15;;
72065;SDS011;59939;52.516;13.420;2022-07-06T10:00:28;9.80;;;1.70;;
72065;SDS011;59939;52.516;13.420;2022-07-06T10:03:34;4.57;;;1.15;;
72065;SDS011;59939;52.516;13.420;2022-07-06T10:06:39;7.95;;;1.60;;
72065;SDS011;59939;52.516;13.420;2022-07-06T10:09:58;9.73;;;1.52;;
72065;SDS011;59939;52.516;13.420;2022-07-06T10:13:04;6.93;;;1.08;;
72065;SDS011;59939;52.516;13.420;2022-07-06T10:16:15;2.88;;;1.10;;
72065;SDS011;59939;52.516;13.420;2022-07-06T10:19:21;3.95;;;0.98;;
72065;SDS011;59939;52.516;13.420;2022-07-06T10:22:25;6.15;;;1.27;;
72065;SDS011;59939;52.516;13.420;2022-07-06T10:25:37;6.57;;;1.50;;
72065;SDS011;59939;52.516;13.420;2022-07-06T10:28:41;9.00;;;1.50;;
72065;SDS011;59939;52.516;13.420;2022-07-06T10:31:47;6.47;;;1.52;;
72065;SDS011;59939;52.516;13.420;2022-07-06T10:34:52;5.68;;;1.55;;
72065;SDS011;59939;52.516;13.420;2022-07-06T10:38:04;5.88;;;1.20;;
72065;SDS011;59939;52.516;13.420;2022-07-06T10:41:10;4.00;;;1.30;;
72065;SDS011;59939;52.516;13.420;2022-07-06T10:44:15;8.52;;;1.38;;
72065;SDS011;59939;52.516;13.420;2022-07-06T10:47:28;7.03;;;1.27;;
72065;SDS011;59939;52.516;13.420;2022-07-06T10:50:36;3.58;;;1.08;;
72065;SDS011;59939;52.516;13.420;2022-07-06T10:53:42;4.60;;;1.20;;
72065;SDS011;59939;52.516;13.420;2022-07-06T10:56:50;3.03;;;0.98;;
72065;SDS011;59939;52.516;13.420;2022-07-06T10:59:59;2.65;;;0.75;;
72065;SDS011;59939;52.516;13.420;2022-07-06T11:03:33;4.45;;;1.48;;
72065;SDS011;59939;52.516;13.420;2022-07-06T11:06:47;3.92;;;0.82;;
72065;SDS011;59939;52.516;13.420;2022-07-06T11:09:54;3.50;;;0.88;;
72065;SDS011;59939;52.516;13.420;2022-07-06T11:13:01;3.60;;;1.10;;
72065;SDS011;59939;52.516;13.420;2022-07-06T11:16:06;5.80;;;1.40;;
72065;SDS011;59939;52.516;13.420;2022-07-06T11:19:28;7.10;;;0.98;;
72065;SDS011;59939;52.516;13.420;2022-07-06T11:22:53;3.45;;;1.27;;
72065;SDS011;59939;52.516;13.420;2022-07-06T11:26:00;4.20;;;1.17;;
72065;SDS011;59939;52.516;13.420;2022-07-06T11:29:05;15.35;;;1.77;;
72065;SDS011;59939;52.516;13.420;2022-07-06T11:32:12;4.95;;;1.40;;
72065;SDS011;59939;52.516;13.420;2022-07-06T11:35:21;6.20;;;1.50;;
72065;SDS011;59939;52.516;13.420;2022-07-06T11:38:26;5.22;;;1.10;;
72065;SDS011;59939;52.516;13.420;2022-07-06T11:41:31;5.13;;;1.17;;
72065;SDS011;59939;52.516;13.420;2022-07-06T11:44:35;4.85;;;0.88;;
72065;SDS011;59939;52.516;13.420;2022-07-06T11:47:40;1.40;;;0.65;;
72065;SDS011;59939;52.516;13.420;2022-07-06T11:50:59;4.03;;;0.88;;
72065;SDS011;59939;52.516;13.420;2022-07-06T11:54:14;5.03;;;0.93;;
72065;SDS011;59939;52.516;13.420;2022-07-06T11:57:20;9.10;;;1.00;;
72065;SDS011;59939;52.516;13.420;2022-07-06T12:00:25;4.55;;;1.10;;
72065;SDS011;59939;52.516;13.420;2022-07-06T12:03:31;7.90;;;1.20;;
72065;SDS011;59939;52.516;13.420;2022-07-06T12:06:36;4.20;;;1.00;;
72065;SDS011;59939;52.516;13.420;2022-07-06T12:09:45;2.38;;;0.70;;
72065;SDS011;59939;52.516;13.420;2022-07-06T12:12:52;3.70;;;0.90;;
72065;SDS011;59939;52.516;13.420;2022-07-06T12:16:17;4.50;;;0.80;;
72065;SDS011;59939;52.516;13.420;2022-07-06T12:19:24;7.32;;;1.40;;
72065;SDS011;59939;52.516;13.420;2022-07-06T12:22:33;6.40;;;1.00;;
72065;SDS011;59939;52.516;13.420;2022-07-06T12:25:45;7.53;;;1.40;;
72065;SDS011;59939;52.516;13.420;2022-07-06T12:28:58;7.03;;;1.02;;
72065;SDS011;59939;52.516;13.420;2022-07-06T12:32:05;6.10;;;1.73;;
72065;SDS011;59939;52.516;13.420;2022-07-06T12:35:10;5.03;;;1.25;;
72065;SDS011;59939;52.516;13.420;2022-07-06T12:42:05;4.15;;;1.00;;
72065;SDS011;59939;52.516;13.420;2022-07-06T12:45:14;3.83;;;1.10;;
72065;SDS011;59939;52.516;13.420;2022-07-06T12:48:19;4.65;;;0.90;;
72065;SDS011;59939;52.516;13.420;2022-07-06T12:51:23;7.03;;;1.38;;
72065;SDS011;59939;52.516;13.420;2022-07-06T12:54:35;3.47;;;1.05;;
72065;SDS011;59939;52.516;13.420;2022-07-06T12:57:48;9.45;;;1.67;;
72065;SDS011;59939;52.516;13.420;2022-07-06T13:00:53;6.63;;;0.93;;
72065;SDS011;59939;52.516;13.420;2022-07-06T13:03:58;11.05;;;1.48;;
72065;SDS011;59939;52.516;13.420;2022-07-06T13:07:04;4.00;;;1.00;;
72065;SDS011;59939;52.516;13.420;2022-07-06T13:10:11;7.28;;;1.17;;
72065;SDS011;59939;52.516;13.420;2022-07-06T13:13:30;4.10;;;0.95;;
72065;SDS011;59939;52.516;13.420;2022-07-06T13:16:34;5.20;;;1.30;;
72065;SDS011;59939;52.516;13.420;2022-07-06T13:19:39;8.45;;;1.45;;
72065;SDS011;59939;52.516;13.420;2022-07-06T13:22:43;5.82;;;1.15;;
72065;SDS011;59939;52.516;13.420;2022-07-06T13:25:48;12.07;;;2.75;;
72065;SDS011;59939;52.516;13.420;2022-07-06T13:28:55;10.88;;;1.70;;
72065;SDS011;59939;52.516;13.420;2022-07-06T13:31:59;4.25;;;1.20;;
72065;SDS011;59939;52.516;13.420;2022-07-06T13:35:11;9.13;;;1.60;;
72065;SDS011;59939;52.516;13.420;2022-07-06T13:38:17;13.05;;;1.92;;
72065;SDS011;59939;52.516;13.420;2022-07-06T13:41:24;11.10;;;1.00;;
72065;SDS011;59939;52.516;13.420;2022-07-06T13:44:35;3.13;;;1.08;;
72065;SDS011;59939;52.516;13.420;2022-07-06T13:47:40;4.18;;;1.08;;
72065;SDS011;59939;52.516;13.420;2022-07-06T13:50:45;6.13;;;1.23;;
72065;SDS011;59939;52.516;13.420;2022-07-06T13:53:51;7.82;;;1.38;;
72065;SDS011;59939;52.516;13.420;2022-07-06T13:56:55;6.95;;;1.50;;
72065;SDS011;59939;52.516;13.420;2022-07-06T13:59:59;4.57;;;1.30;;
72065;SDS011;59939;52.516;13.420;2022-07-06T14:03:03;5.18;;;1.13;;
72065;SDS011;59939;52.516;13.420;2022-07-06T14:06:14;6.60;;;1.60;;
72065;SDS011;59939;52.516;13.420;2022-07-06T14:09:19;3.15;;;1.10;;
72065;SDS011;59939;52.516;13.420;2022-07-06T14:12:23;3.97;;;1.10;;
72065;SDS011;59939;52.516;13.420;2022-07-06T14:15:36;3.15;;;1.05;;
72065;SDS011;59939;52.516;13.420;2022-07-06T14:18:40;8.95;;;1.63;;
72065;SDS011;59939;52.516;13.420;2022-07-06T14:21:51;8.80;;;1.13;;
72065;SDS011;59939;52.516;13.420;2022-07-06T14:24:55;5.13;;;0.90;;
72065;SDS011;59939;52.516;13.420;2022-07-06T14:28:00;9.05;;;1.20;;
72065;SDS011;59939;52.516;13.420;2022-07-06T14:31:06;1.27;;;0.68;;
72065;SDS011;59939;52.516;13.420;2022-07-06T14:34:24;4.20;;;1.00;;
72065;SDS011;59939;52.516;13.420;2022-07-06T14:37:32;9.60;;;1.23;;
72065;SDS011;59939;52.516;13.420;2022-07-06T14:40:37;3.58;;;1.10;;
72065;SDS011;59939;52.516;13.420;2022-07-06T14:43:48;5.47;;;1.45;;
72065;SDS011;59939;52.516;13.420;2022-07-06T14:46:52;6.88;;;1.13;;
72065;SDS011;59939;52.516;13.420;2022-07-06T14:49:57;4.75;;;0.90;;
72065;SDS011;59939;52.516;13.420;2022-07-06T14:53:09;7.43;;;1.02;;
72065;SDS011;59939;52.516;13.420;2022-07-06T14:56:13;6.18;;;1.05;;
72065;SDS011;59939;52.516;13.420;2022-07-06T14:59:17;4.70;;;0.90;;
72065;SDS011;59939;52.516;13.420;2022-07-06T15:02:26;5.43;;;1.05;;
72065;SDS011;59939;52.516;13.420;2022-07-06T15:05:31;9.10;;;1.25;;
72065;SDS011;59939;52.516;13.420;2022-07-06T15:08:37;6.75;;;1.00;;
72065;SDS011;59939;52.516;13.420;2022-07-06T15:11:41;5.47;;;1.42;;
72065;SDS011;59939;52.516;13.420;2022-07-06T15:14:46;3.00;;;0.73;;
72065;SDS011;59939;52.516;13.420;2022-07-06T15:17:50;5.10;;;1.00;;
72065;SDS011;59939;52.516;13.420;2022-07-06T15:20:56;7.72;;;1.23;;
72065;SDS011;59939;52.516;13.420;2022-07-06T15:24:04;8.50;;;1.55;;
72065;SDS011;59939;52.516;13.420;2022-07-06T15:27:10;7.63;;;1.75;;
72065;SDS011;59939;52.516;13.420;2022-07-06T15:30:17;4.68;;;1.27;;
72065;SDS011;59939;52.516;13.420;2022-07-06T15:33:32;7.47;;;1.10;;
72065;SDS011;59939;52.516;13.420;2022-07-06T15:36:37;8.35;;;1.20;;
72065;SDS011;59939;52.516;13.420;2022-07-06T15:39:43;6.80;;;1.10;;
72065;SDS011;59939;52.516;13.420;2022-07-06T15:42:47;7.75;;;1.63;;
72065;SDS011;59939;52.516;13.420;2022-07-06T15:45:57;6.53;;;1.08;;
72065;SDS011;59939;52.516;13.420;2022-07-06T15:49:03;3.90;;;1.58;;
72065;SDS011;59939;52.516;13.420;2022-07-06T15:52:08;5.65;;;1.40;;
72065;SDS011;59939;52.516;13.420;2022-07-06T15:55:12;6.50;;;1.27;;
72065;SDS011;59939;52.516;13.420;2022-07-06T15:58:19;5.57;;;1.75;;
72065;SDS011;59939;52.516;13.420;2022-07-06T16:01:23;5.60;;;1.50;;
72065;SDS011;59939;52.516;13.420;2022-07-06T16:04:34;7.65;;;1.20;;
72065;SDS011;59939;52.516;13.420;2022-07-06T16:07:39;3.75;;;1.05;;
72065;SDS011;59939;52.516;13.420;2022-07-06T16:11:03;8.60;;;1.10;;
72065;SDS011;59939;52.516;13.420;2022-07-06T16:14:07;8.75;;;1.20;;
72065;SDS011;59939;52.516;13.420;2022-07-06T16:17:14;5.35;;;1.20;;
72065;SDS011;59939;52.516;13.420;2022-07-06T16:20:19;5.93;;;1.00;;
72065;SDS011;59939;52.516;13.420;2022-07-06T16:23:23;6.45;;;1.13;;
72065;SDS011;59939;52.516;13.420;2022-07-06T16:26:30;4.38;;;1.30;;
72065;SDS011;59939;52.516;13.420;2022-07-06T16:33:04;4.82;;;0.88;;
72065;SDS011;59939;52.516;13.420;2022-07-06T16:36:08;6.13;;;0.98;;
72065;SDS011;59939;52.516;13.420;2022-07-06T16:39:14;5.25;;;0.80;;
72065;SDS011;59939;52.516;13.420;2022-07-06T16:42:20;5.90;;;1.27;;
72065;SDS011;59939;52.516;13.420;2022-07-06T16:45:25;4.47;;;0.77;;
72065;SDS011;59939;52.516;13.420;2022-07-06T16:48:31;4.10;;;1.00;;
72065;SDS011;59939;52.516;13.420;2022-07-06T16:51:40;7.07;;;1.20;;
72065;SDS011;59939;52.516;13.420;2022-07-06T16:54:44;3.95;;;1.55;;
72065;SDS011;59939;52.516;13.420;2022-07-06T16:57:48;4.95;;;1.13;;
72065;SDS011;59939;52.516;13.420;2022-07-06T17:00:52;4.25;;;1.20;;
72065;SDS011;59939;52.516;13.420;2022-07-06T17:03:57;4.90;;;0.80;;
72065;SDS011;59939;52.516;13.420;2022-07-06T17:07:01;3.33;;;0.80;;
72065;SDS011;59939;52.516;13.420;2022-07-06T17:10:07;3.25;;;1.05;;
72065;SDS011;59939;52.516;13.420;2022-07-06T17:13:12;4.55;;;0.90;;
72065;SDS011;59939;52.516;13.420;2022-07-06T17:16:16;5.18;;;1.00;;
72065;SDS011;59939;52.516;13.420;2022-07-06T17:19:23;4.25;;;1.13;;
72065;SDS011;59939;52.516;13.420;2022-07-06T17:22:30;3.78;;;1.15;;
72065;SDS011;59939;52.516;13.420;2022-07-06T17:25:42;4.00;;;1.38;;
72065;SDS011;59939;52.516;13.420;2022-07-06T17:28:47;3.22;;;0.82;;
72065;SDS011;59939;52.516;13.420;2022-07-06T17:31:52;5.30;;;1.38;;
72065;SDS011;59939;52.516;13.420;2022-07-06T17:35:03;3.00;;;1.42;;
72065;SDS011;59939;52.516;13.420;2022-07-06T17:38:10;2.13;;;0.90;;
72065;SDS011;59939;52.516;13.420;2022-07-06T17:41:16;2.58;;;1.10;;
72065;SDS011;59939;52.516;13.420;2022-07-06T17:44:22;6.93;;;1.35;;
72065;SDS011;59939;52.516;13.420;2022-07-06T17:47:26;4.95;;;1.00;;
72065;SDS011;59939;52.516;13.420;2022-07-06T17:50:31;3.10;;;0.98;;
72065;SDS011;59939;52.516;13.420;2022-07-06T17:57:08;2.38;;;0.93;;
72065;SDS011;59939;52.516;13.420;2022-07-06T18:00:26;4.57;;;0.90;;
72065;SDS011;59939;52.516;13.420;2022-07-06T18:03:30;4.07;;;1.30;;
72065;SDS011;59939;52.516;13.420;2022-07-06T18:06:37;5.90;;;1.13;;
72065;SDS011;59939;52.516;13.420;2022-07-06T18:09:41;2.83;;;0.85;;
72065;SDS011;59939;52.516;13.420;2022-07-06T18:12:46;4.85;;;1.05;;
72065;SDS011;59939;52.516;13.420;2022-07-06T18:15:50;5.20;;;1.00;;
72065;SDS011;59939;52.516;13.420;2022-07-06T18:18:57;2.05;;;0.90;;
72065;SDS011;59939;52.516;13.420;2022-07-06T18:22:01;3.35;;;0.85;;
72065;SDS011;59939;52.516;13.420;2022-07-06T18:25:06;5.18;;;1.27;;
72065;SDS011;59939;52.516;13.420;2022-07-06T18:28:13;6.03;;;1.25;;
72065;SDS011;59939;52.516;13.420;2022-07-06T18:31:20;6.85;;;1.10;;
72065;SDS011;59939;52.516;13.420;2022-07-06T18:34:31;8.82;;;1.30;;
72065;SDS011;59939;52.516;13.420;2022-07-06T18:37:36;6.18;;;1.20;;